Time;durP1;ratioP1;P1;durP2;ratioP2;P2;SDS_P1;SDS_P2;PMS_P1;PMS_P2;Temp;Humidity;BMP_temperature;BMP_pressure;BME280_temperature;BME280_humidity;BME280_pressure;Samples;Min_cycle;Max_cycle;Signal;HPM_P1;HPM_P2
2022/12/02 00:01:31;;;;;;;;;;;;;;;3.99;100.00;102511.41;5034062;28;20004;-59
2022/12/02 00:03:56;;;;;;;;;;;;;;;4.01;100.00;102500.22;5032766;28;19920;-59
2022/12/02 00:06:26;;;;;;;;;;;;;;;4.05;100.00;102501.47;5033726;28;19913;-59
2022/12/02 00:08:52;;;;;;;;;;;;;;;4.00;100.00;102496.66;5033735;28;19913;-59
2022/12/02 00:11:28;;;;;;;;;;;;;;;4.02;100.00;102504.63;5033516;28;19924;-60
2022/12/02 00:13:55;;;;;;;;;;;;;;;3.96;100.00;102497.31;5034095;28;19913;-60
2022/12/02 00:16:21;;;;;;;;;;;;;;;3.96;100.00;102500.03;5033915;28;19920;-60
2022/12/02 00:18:47;;;;;;;;;;;;;;;3.94;100.00;102499.41;5033543;28;19921;-59
2022/12/02 00:21:12;;;;;;;;;;;;;;;3.89;100.00;102506.38;5033374;28;19996;-59
2022/12/02 00:23:37;;;;;;;;;;;;;;;3.88;100.00;102499.22;5031809;28;20486;-59
2022/12/02 00:26:02;;;;;;;;;;;;;;;3.88;100.00;102495.66;5033358;28;20348;-58
2022/12/02 00:28:28;;;;;;;;;;;;;;;3.81;100.00;102484.75;5033348;28;19939;-60
2022/12/02 00:30:53;;;;;;;;;;;;;;;3.80;100.00;102491.28;5032287;28;19935;-58
2022/12/02 00:33:18;;;;;;;;;;;;;;;3.72;100.00;102480.59;5033333;28;19913;-59
2022/12/02 00:35:44;;;;;;;;;;;;;;;3.70;100.00;102485.44;5033322;28;19939;-60
2022/12/02 00:38:09;;;;;;;;;;;;;;;3.61;100.00;102478.53;5033223;28;19913;-60
2022/12/02 00:40:34;;;;;;;;;;;;;;;3.61;100.00;102475.81;5033414;28;19932;-58
2022/12/02 00:48:27;;;;;;;;;;;;;;;3.55;100.00;102478.38;5033526;28;19928;-60
2022/12/02 00:50:52;;;;;;;;;;;;;;;3.56;100.00;102476.47;5030746;28;19939;-59
2022/12/02 00:53:18;;;;;;;;;;;;;;;3.57;100.00;102481.72;5033736;28;19916;-59
2022/12/02 00:55:43;;;;;;;;;;;;;;;3.55;100.00;102472.91;5033410;28;19912;-60
2022/12/02 00:58:08;;;;;;;;;;;;;;;3.55;100.00;102466.56;5033296;28;20454;-59
2022/12/02 01:00:33;;;;;;;;;;;;;;;3.53;100.00;102475.00;5032843;28;19913;-59
2022/12/02 01:02:59;;;;;;;;;;;;;;;3.61;100.00;102468.44;5032642;28;19912;-59
2022/12/02 01:05:24;;;;;;;;;;;;;;;3.54;100.00;102476.69;5031094;28;20418;-59
2022/12/02 01:07:49;;;;;;;;;;;;;;;3.48;100.00;102474.84;5032691;28;20011;-60
2022/12/02 01:10:14;;;;;;;;;;;;;;;3.45;100.00;102461.59;5032480;28;19913;-59
2022/12/02 01:12:39;;;;;;;;;;;;;;;3.43;100.00;102472.75;5032880;28;20328;-60
2022/12/02 01:15:05;;;;;;;;;;;;;;;3.37;100.00;102464.56;5032935;28;19936;-60
2022/12/02 01:17:30;;;;;;;;;;;;;;;3.36;100.00;102462.88;5032882;28;19936;-60
2022/12/02 01:19:55;;;;;;;;;;;;;;;3.42;100.00;102468.34;5032635;28;19913;-60
2022/12/02 01:22:22;;;;;;;;;;;;;;;3.33;100.00;102463.31;5019189;28;19913;-60
2022/12/02 01:24:47;;;;;;;;;;;;;;;3.28;100.00;102475.75;5012717;28;19925;-60
2022/12/02 01:27:12;;;;;;;;;;;;;;;3.28;100.00;102462.09;5012175;28;19917;-60
2022/12/02 01:29:37;;;;;;;;;;;;;;;3.35;100.00;102464.81;5011636;28;19943;-61
2022/12/02 01:32:03;;;;;;;;;;;;;;;3.35;100.00;102466.69;5011760;28;20250;-60
2022/12/02 01:34:28;;;;;;;;;;;;;;;3.33;100.00;102466.91;5011929;28;19953;-60
2022/12/02 01:36:53;;;;;;;;;;;;;;;3.30;100.00;102474.72;5011902;28;19967;-60
2022/12/02 01:39:18;;;;;;;;;;;;;;;3.50;100.00;102472.69;5011787;28;19914;-61
2022/12/02 01:41:44;;;;;;;;;;;;;;;3.22;100.00;102473.88;5012033;28;20375;-59
2022/12/02 01:44:09;;;;;;;;;;;;;;;3.23;100.00;102472.81;5012467;28;19917;-60
2022/12/02 01:46:36;;;;;;;;;;;;;;;3.19;100.00;102468.00;5010708;28;20008;-60
2022/12/02 01:49:01;;;;;;;;;;;;;;;3.22;100.00;102470.31;5013382;28;20005;-60
2022/12/02 01:51:26;;;;;;;;;;;;;;;3.10;100.00;102470.97;5012713;28;20335;-58
2022/12/02 01:53:52;;;;;;;;;;;;;;;3.10;100.00;102475.63;5012934;28;19913;-60
2022/12/02 01:56:17;;;;;;;;;;;;;;;3.17;100.00;102470.97;5012636;28;19917;-57
2022/12/02 01:58:42;;;;;;;;;;;;;;;3.08;100.00;102473.09;5013111;28;19913;-60
2022/12/02 02:01:27;;;;;;;;;;;;;;;3.02;100.00;102475.88;5012868;28;19920;-60
2022/12/02 02:03:52;;;;;;;;;;;;;;;2.99;100.00;102471.66;5013400;28;19918;-60
2022/12/02 02:06:17;;;;;;;;;;;;;;;3.01;100.00;102466.81;5013587;28;20367;-61
2022/12/02 02:08:42;;;;;;;;;;;;;;;2.96;100.00;102472.91;5013209;28;20223;-58
2022/12/02 02:11:08;;;;;;;;;;;;;;;2.89;100.00;102479.44;5013040;28;19949;-60
2022/12/02 02:13:33;;;;;;;;;;;;;;;2.95;100.00;102471.25;5012663;28;19963;-61
2022/12/02 02:15:58;;;;;;;;;;;;;;;2.90;100.00;102476.53;5027336;28;20503;-60
2022/12/02 02:18:23;;;;;;;;;;;;;;;2.85;100.00;102468.09;5015729;28;19913;-60
2022/12/02 02:20:49;;;;;;;;;;;;;;;2.83;100.00;102467.50;5016327;28;20024;-60
2022/12/02 02:23:14;;;;;;;;;;;;;;;2.81;100.00;102464.97;5031449;28;19913;-62
2022/12/02 02:25:42;;;;;;;;;;;;;;;2.78;100.00;102468.16;5016567;28;20000;-60
2022/12/02 02:28:08;;;;;;;;;;;;;;;2.70;99.98;102475.72;5016216;28;19924;-60
2022/12/02 02:30:34;;;;;;;;;;;;;;;2.68;100.00;102464.16;5015835;28;19925;-60
2022/12/02 02:33:01;;;;;;;;;;;;;;;2.70;100.00;102454.69;5015976;28;19928;-61
2022/12/02 02:35:27;;;;;;;;;;;;;;;2.74;100.00;102460.59;5016493;28;19914;-58
2022/12/02 02:37:53;;;;;;;;;;;;;;;2.75;100.00;102451.31;5016540;28;19920;-60
2022/12/02 02:40:19;;;;;;;;;;;;;;;2.74;100.00;102450.47;5016399;28;19948;-60
2022/12/02 02:42:50;;;;;;;;;;;;;;;2.67;100.00;102448.81;5013273;28;19975;-61
2022/12/02 02:45:16;;;;;;;;;;;;;;;2.67;100.00;102455.13;5016013;28;19994;-60
2022/12/02 02:47:41;;;;;;;;;;;;;;;2.63;100.00;102453.88;5015658;28;20362;-58
2022/12/02 02:50:06;;;;;;;;;;;;;;;2.61;100.00;102453.22;5015216;28;20424;-60
2022/12/02 02:52:32;;;;;;;;;;;;;;;2.63;100.00;102446.53;5016101;28;20308;-61
2022/12/02 02:54:57;;;;;;;;;;;;;;;2.72;100.00;102449.84;5015587;28;19925;-60
2022/12/02 02:57:22;;;;;;;;;;;;;;;2.63;100.00;102451.13;5015620;28;20427;-60
2022/12/02 02:59:50;;;;;;;;;;;;;;;2.63;100.00;102440.19;5015445;28;19949;-60
2022/12/02 03:02:15;;;;;;;;;;;;;;;2.58;100.00;102442.75;5015368;28;20020;-60
2022/12/02 03:04:41;;;;;;;;;;;;;;;2.58;100.00;102435.38;5015536;28;20440;-60
2022/12/02 03:07:06;;;;;;;;;;;;;;;2.57;100.00;102428.22;5015555;28;19913;-60
2022/12/02 03:09:32;;;;;;;;;;;;;;;2.57;100.00;102425.50;5015598;28;19917;-61
2022/12/02 03:11:58;;;;;;;;;;;;;;;2.50;99.87;102424.69;5031030;28;19917;-61
2022/12/02 03:14:24;;;;;;;;;;;;;;;2.47;100.00;102427.81;5014192;28;19913;-61
2022/12/02 03:16:49;;;;;;;;;;;;;;;2.46;100.00;102427.00;5013593;28;19913;-61
2022/12/02 03:19:15;;;;;;;;;;;;;;;2.43;100.00;102435.59;5030315;28;19920;-61
2022/12/02 03:21:40;;;;;;;;;;;;;;;2.42;100.00;102444.84;5015045;28;20008;-60
2022/12/02 03:24:06;;;;;;;;;;;;;;;2.42;100.00;102433.94;5014782;28;20273;-59
2022/12/02 03:26:32;;;;;;;;;;;;;;;2.43;100.00;102426.59;5014785;28;20261;-59
2022/12/02 03:28:59;;;;;;;;;;;;;;;2.42;100.00;102422.16;5014112;28;19925;-61
2022/12/02 03:31:24;;;;;;;;;;;;;;;2.39;100.00;102423.44;5014794;28;19980;-60
2022/12/02 03:33:50;;;;;;;;;;;;;;;2.41;100.00;102412.28;5015204;28;20376;-60
2022/12/02 03:36:15;;;;;;;;;;;;;;;2.43;100.00;102416.47;5014974;28;19920;-60
2022/12/02 03:38:41;;;;;;;;;;;;;;;2.39;100.00;102406.19;5012621;28;19913;-60
2022/12/02 03:41:06;;;;;;;;;;;;;;;2.32;100.00;102408.94;5015237;28;19914;-60
2022/12/02 03:43:32;;;;;;;;;;;;;;;2.25;100.00;102411.69;5015146;28;20284;-60
2022/12/02 03:45:58;;;;;;;;;;;;;;;2.28;100.00;102410.44;5014989;28;19972;-59
2022/12/02 03:48:24;;;;;;;;;;;;;;;2.32;100.00;102409.78;5013445;28;20036;-60
2022/12/02 03:50:50;;;;;;;;;;;;;;;2.31;100.00;102401.81;5012794;28;20347;-60
2022/12/02 03:53:15;;;;;;;;;;;;;;;2.23;100.00;102399.28;5014490;28;20396;-60
2022/12/02 03:55:40;;;;;;;;;;;;;;;2.21;100.00;102401.41;5014887;28;19913;-59
2022/12/02 03:58:06;;;;;;;;;;;;;;;2.19;100.00;102409.78;5014674;28;19959;-59
2022/12/02 04:00:32;;;;;;;;;;;;;;;2.13;100.00;102408.75;5015139;28;20327;-60
2022/12/02 04:02:58;;;;;;;;;;;;;;;2.14;100.00;102402.22;5014590;28;19924;-60
2022/12/02 04:05:23;;;;;;;;;;;;;;;2.11;100.00;102401.81;5014429;28;19913;-60
2022/12/02 04:07:48;;;;;;;;;;;;;;;2.15;100.00;102397.63;5014604;28;19920;-60
2022/12/02 04:10:13;;;;;;;;;;;;;;;2.21;100.00;102398.69;5014484;28;19914;-60
2022/12/02 04:12:39;;;;;;;;;;;;;;;2.18;100.00;102391.72;5014590;28;20273;-60
2022/12/02 04:15:04;;;;;;;;;;;;;;;2.15;100.00;102389.44;5014844;28;20277;-62
2022/12/02 04:17:29;;;;;;;;;;;;;;;2.15;100.00;102386.72;5014511;28;20015;-60
2022/12/02 04:19:55;;;;;;;;;;;;;;;2.11;100.00;102391.75;5014515;28;19920;-61
2022/12/02 04:22:20;;;;;;;;;;;;;;;2.13;100.00;102391.53;5014475;28;19956;-60
2022/12/02 04:24:45;;;;;;;;;;;;;;;2.12;100.00;102389.84;5014437;28;20008;-60
2022/12/02 04:27:10;;;;;;;;;;;;;;;2.20;100.00;102395.09;5014235;28;20406;-60
2022/12/02 04:29:36;;;;;;;;;;;;;;;2.13;100.00;102397.00;5014323;28;19949;-63
2022/12/02 04:32:01;;;;;;;;;;;;;;;2.08;100.00;102397.63;5029772;28;20254;-60
2022/12/02 04:34:26;;;;;;;;;;;;;;;2.11;100.00;102390.91;5027253;28;19913;-60
2022/12/02 04:36:52;;;;;;;;;;;;;;;2.12;100.00;102395.31;5014063;28;19923;-61
2022/12/02 04:39:17;;;;;;;;;;;;;;;2.09;100.00;102393.84;5013355;28;19952;-60
2022/12/02 04:41:42;;;;;;;;;;;;;;;2.14;100.00;102388.56;5013590;28;20293;-62
2022/12/02 04:44:07;;;;;;;;;;;;;;;2.19;100.00;102382.47;5013209;28;20016;-60
2022/12/02 04:46:32;;;;;;;;;;;;;;;2.23;100.00;102381.03;5028670;28;19997;-60
2022/12/02 04:48:58;;;;;;;;;;;;;;;2.21;100.00;102377.66;5021779;28;19917;-60
2022/12/02 04:51:23;;;;;;;;;;;;;;;2.24;100.00;102374.50;5033110;28;20383;-60
2022/12/02 04:53:48;;;;;;;;;;;;;;;2.22;100.00;102370.31;5032698;28;19913;-61
2022/12/02 04:56:13;;;;;;;;;;;;;;;2.14;99.81;102366.75;5033125;28;20376;-59
2022/12/02 04:58:38;;;;;;;;;;;;;;;2.24;100.00;102369.06;5032776;28;19913;-60
2022/12/02 05:01:04;;;;;;;;;;;;;;;2.15;100.00;102373.06;5033048;28;19975;-60
2022/12/02 05:03:29;;;;;;;;;;;;;;;2.13;99.68;102367.78;5032926;28;19921;-61
2022/12/02 05:05:54;;;;;;;;;;;;;;;2.12;99.57;102355.22;5033145;28;19920;-59
2022/12/02 05:08:19;;;;;;;;;;;;;;;2.20;99.35;102354.13;5032944;28;20012;-59
2022/12/02 05:10:44;;;;;;;;;;;;;;;2.12;99.92;102360.66;5032759;28;19920;-59
2022/12/02 05:13:09;;;;;;;;;;;;;;;2.23;99.54;102353.72;5033007;28;19913;-60
2022/12/02 05:15:35;;;;;;;;;;;;;;;2.15;99.59;102345.75;5032950;28;20275;-60
2022/12/02 05:18:00;;;;;;;;;;;;;;;2.15;99.80;102338.38;5031358;28;20359;-60
2022/12/02 05:20:25;;;;;;;;;;;;;;;2.15;99.79;102353.94;5032993;28;19913;-60
2022/12/02 05:22:50;;;;;;;;;;;;;;;2.14;100.00;102352.25;5032983;28;19913;-59
2022/12/02 05:25:16;;;;;;;;;;;;;;;2.14;100.00;102364.00;5032818;28;20296;-60
2022/12/02 05:27:41;;;;;;;;;;;;;;;2.10;99.86;102362.78;5031309;28;19913;-60
2022/12/02 05:30:06;;;;;;;;;;;;;;;2.12;100.00;102354.34;5030385;28;19939;-60
2022/12/02 05:32:32;;;;;;;;;;;;;;;2.15;98.52;102352.03;5033009;28;19936;-60
2022/12/02 05:34:57;;;;;;;;;;;;;;;2.13;99.49;102343.22;5032715;28;19913;-60
2022/12/02 05:37:22;;;;;;;;;;;;;;;2.11;99.72;102345.34;5032346;28;19948;-60
2022/12/02 05:39:48;;;;;;;;;;;;;;;2.08;99.65;102350.38;5032280;28;19917;-59
2022/12/02 05:42:13;;;;;;;;;;;;;;;2.00;99.35;102329.59;5032396;28;19912;-60
2022/12/02 05:44:39;;;;;;;;;;;;;;;2.16;99.92;102341.97;5032471;28;20340;-60
2022/12/02 05:47:30;;;;;;;;;;;;;;;2.11;99.18;102353.53;5032673;28;19948;-60
2022/12/02 05:49:57;;;;;;;;;;;;;;;2.12;99.25;102355.22;5029961;28;20352;-60
2022/12/02 05:52:24;;;;;;;;;;;;;;;2.06;99.38;102350.56;5032214;28;19940;-61
2022/12/02 05:54:54;;;;;;;;;;;;;;;2.08;98.78;102350.38;5031824;28;19944;-61
2022/12/02 05:57:23;;;;;;;;;;;;;;;2.05;99.44;102348.91;5032134;28;19920;-60
2022/12/02 05:59:49;;;;;;;;;;;;;;;2.02;99.70;102357.53;5032668;28;19985;-59
2022/12/02 06:02:24;;;;;;;;;;;;;;;2.03;100.00;102354.56;5031983;28;19920;-60
2022/12/02 06:04:50;;;;;;;;;;;;;;;2.05;99.75;102357.09;5030655;28;19920;-60
2022/12/02 06:07:15;;;;;;;;;;;;;;;1.97;100.00;102344.50;5031827;28;19913;-60
2022/12/02 06:09:41;;;;;;;;;;;;;;;2.03;100.00;102345.56;5031962;28;20249;-60
2022/12/02 06:12:12;;;;;;;;;;;;;;;2.07;100.00;102343.25;5032186;28;19998;-60
2022/12/02 06:14:38;;;;;;;;;;;;;;;2.01;99.69;102343.03;5032388;28;19936;-59
2022/12/02 06:17:12;;;;;;;;;;;;;;;2.00;99.38;102344.06;5031955;28;20268;-62
2022/12/02 06:19:37;;;;;;;;;;;;;;;2.05;100.00;102340.72;5031857;28;19924;-58
2022/12/02 06:22:03;;;;;;;;;;;;;;;2.07;99.38;102346.81;5031605;28;20027;-59
2022/12/02 06:24:29;;;;;;;;;;;;;;;2.10;99.70;102340.94;5032022;28;19925;-59
2022/12/02 06:26:59;;;;;;;;;;;;;;;2.08;100.00;102344.94;5029242;28;19917;-61
2022/12/02 06:29:26;;;;;;;;;;;;;;;2.10;99.73;102346.38;5031409;28;20420;-61
2022/12/02 06:31:51;;;;;;;;;;;;;;;2.06;99.91;102345.13;5031400;28;20007;-60
2022/12/02 06:34:32;;;;;;;;;;;;;;;2.08;100.00;102342.19;5031931;28;20000;-60
2022/12/02 06:37:00;;;;;;;;;;;;;;;2.04;100.00;102336.28;5032286;28;19913;-60
2022/12/02 06:39:25;;;;;;;;;;;;;;;2.07;100.00;102349.53;5030824;28;20285;-60
2022/12/02 06:41:51;;;;;;;;;;;;;;;2.09;100.00;102352.03;5032039;28;19913;-59
2022/12/02 06:47:27;;;;;;;;;;;;;;;2.03;100.00;102335.47;5032267;28;19967;-60
2022/12/02 06:49:52;;;;;;;;;;;;;;;2.12;100.00;102337.97;5032283;28;19936;-60
2022/12/02 06:52:21;;;;;;;;;;;;;;;2.03;100.00;102340.94;5032175;28;19922;-59
2022/12/02 06:54:47;;;;;;;;;;;;;;;2.00;100.00;102338.63;5032526;28;19983;-59
2022/12/02 06:57:15;;;;;;;;;;;;;;;1.95;100.00;102343.03;5030893;28;20319;-60
2022/12/02 06:59:40;;;;;;;;;;;;;;;1.98;100.00;102337.16;5032161;28;19917;-61
2022/12/02 07:02:14;;;;;;;;;;;;;;;1.97;100.00;102346.38;5031462;28;20020;-61
2022/12/02 07:04:48;;;;;;;;;;;;;;;1.98;100.00;102337.16;5034924;28;19948;-60
2022/12/02 07:07:16;;;;;;;;;;;;;;;2.09;100.00;102339.25;5035549;28;20011;-60
2022/12/02 07:09:53;;;;;;;;;;;;;;;1.95;100.00;102346.63;5033678;28;19947;-61
2022/12/02 07:12:19;;;;;;;;;;;;;;;1.93;100.00;102350.59;5034179;28;20368;-61
2022/12/02 07:14:51;;;;;;;;;;;;;;;1.91;100.00;102342.63;5034365;28;19913;-60
2022/12/02 07:17:21;;;;;;;;;;;;;;;2.00;100.00;102349.53;5034313;28;19913;-60
2022/12/02 07:19:47;;;;;;;;;;;;;;;1.98;100.00;102353.53;5034249;28;19913;-60
2022/12/02 07:22:36;;;;;;;;;;;;;;;1.99;100.00;102349.75;5031590;28;19924;-61
2022/12/02 07:25:01;;;;;;;;;;;;;;;2.03;100.00;102351.84;5025234;28;19991;-60
2022/12/02 07:27:32;;;;;;;;;;;;;;;2.02;100.00;102352.91;5034383;28;20368;-60
2022/12/02 07:29:58;;;;;;;;;;;;;;;1.99;100.00;102345.13;5034572;28;19920;-60
2022/12/02 07:32:23;;;;;;;;;;;;;;;2.00;100.00;102356.91;5035063;28;19916;-60
2022/12/02 07:34:48;;;;;;;;;;;;;;;2.03;100.00;102345.56;5034384;28;20292;-61
2022/12/02 07:37:14;;;;;;;;;;;;;;;2.17;100.00;102340.91;5033052;28;19956;-61
2022/12/02 07:39:39;;;;;;;;;;;;;;;2.11;100.00;102349.94;5034166;28;19967;-59
2022/12/02 07:42:04;;;;;;;;;;;;;;;2.08;100.00;102351.22;5036523;28;19920;-60
2022/12/02 07:44:29;;;;;;;;;;;;;;;2.07;100.00;102351.44;5042049;28;19916;-60
2022/12/02 07:46:55;;;;;;;;;;;;;;;2.04;100.00;102344.50;5041308;28;19917;-60
2022/12/02 07:49:20;;;;;;;;;;;;;;;2.07;100.00;102344.06;5041311;28;20387;-60
2022/12/02 07:51:45;;;;;;;;;;;;;;;2.02;100.00;102349.34;5045610;28;20229;-61
2022/12/02 07:54:10;;;;;;;;;;;;;;;1.98;100.00;102351.66;5033627;28;19982;-60
2022/12/02 07:56:36;;;;;;;;;;;;;;;1.97;100.00;102358.16;5034033;28;19966;-60
2022/12/02 07:59:01;;;;;;;;;;;;;;;1.95;100.00;102357.53;5031213;28;19913;-60
2022/12/02 08:01:27;;;;;;;;;;;;;;;1.94;100.00;102349.53;5013060;28;20373;-59
2022/12/02 08:03:52;;;;;;;;;;;;;;;1.90;100.00;102351.84;5014301;28;20019;-59
2022/12/02 08:06:17;;;;;;;;;;;;;;;1.98;100.00;102357.13;5014396;28;19917;-59
2022/12/02 08:08:42;;;;;;;;;;;;;;;1.85;100.00;102357.94;5014726;28;19964;-61
2022/12/02 08:11:08;;;;;;;;;;;;;;;1.84;100.00;102360.88;5014307;28;19949;-59
2022/12/02 08:13:33;;;;;;;;;;;;;;;2.02;100.00;102354.81;5014397;28;20365;-60
2022/12/02 08:15:58;;;;;;;;;;;;;;;1.89;100.00;102350.16;5013529;28;19983;-60
2022/12/02 08:18:23;;;;;;;;;;;;;;;1.87;100.00;102352.28;5013084;28;20277;-59
2022/12/02 08:20:48;;;;;;;;;;;;;;;1.89;100.00;102352.91;5016750;28;20329;-60
2022/12/02 08:23:17;;;;;;;;;;;;;;;1.86;100.00;102353.34;5015930;28;20281;-61
2022/12/02 08:25:42;;;;;;;;;;;;;;;1.82;100.00;102354.78;5013241;28;19917;-60
2022/12/02 08:28:07;;;;;;;;;;;;;;;1.77;100.00;102352.69;5034767;28;20378;-60
2022/12/02 08:30:33;;;;;;;;;;;;;;;1.81;100.00;102353.97;5054096;28;20339;-60
2022/12/02 08:32:58;;;;;;;;;;;;;;;1.80;100.00;102357.75;5053805;28;19923;-60
2022/12/02 08:35:23;;;;;;;;;;;;;;;1.75;100.00;102351.22;5054018;28;19916;-61
2022/12/02 08:37:48;;;;;;;;;;;;;;;1.78;100.00;102351.66;5053651;28;19943;-59
2022/12/02 08:40:13;;;;;;;;;;;;;;;1.80;100.00;102349.56;5053667;28;19916;-60
2022/12/02 08:42:39;;;;;;;;;;;;;;;1.87;100.00;102341.38;5053661;28;20004;-59
2022/12/02 08:45:04;;;;;;;;;;;;;;;1.84;100.00;102350.78;5053755;28;20019;-59
2022/12/02 08:47:29;;;;;;;;;;;;;;;1.93;100.00;102351.44;5053747;28;19957;-59
2022/12/02 08:49:55;;;;;;;;;;;;;;;1.73;100.00;102354.19;5053618;28;19912;-59
2022/12/02 08:52:20;;;;;;;;;;;;;;;1.70;100.00;102358.13;5052261;28;19959;-59
2022/12/02 08:54:47;;;;;;;;;;;;;;;1.58;100.00;102354.38;5053588;28;19912;-59
2022/12/02 08:57:12;;;;;;;;;;;;;;;1.61;100.00;102344.94;5053219;28;20422;-60
2022/12/02 08:59:38;;;;;;;;;;;;;;;1.67;100.00;102352.28;5053294;28;20015;-58
2022/12/02 09:02:03;;;;;;;;;;;;;;;1.55;100.00;102344.72;5053263;28;19913;-59
2022/12/02 09:04:28;;;;;;;;;;;;;;;1.55;100.00;102355.63;5052840;28;20021;-59
2022/12/02 09:06:53;;;;;;;;;;;;;;;1.54;100.00;102361.28;5053103;28;20451;-59
2022/12/02 09:09:18;;;;;;;;;;;;;;;1.52;100.00;102352.47;5053402;28;20004;-58
2022/12/02 09:11:44;;;;;;;;;;;;;;;1.45;100.00;102348.91;5025257;28;20431;-59
2022/12/02 09:14:11;;;;;;;;;;;;;;;1.54;100.00;102355.81;5027956;28;20486;-59
2022/12/02 09:16:37;;;;;;;;;;;;;;;1.48;100.00;102362.94;5011700;28;19979;-60
2022/12/02 09:19:02;;;;;;;;;;;;;;;1.53;100.00;102351.41;5011620;28;20246;-59
2022/12/02 09:21:27;;;;;;;;;;;;;;;1.52;100.00;102350.59;5013262;28;20356;-59
2022/12/02 09:23:52;;;;;;;;;;;;;;;1.53;100.00;102343.22;5012228;28;20380;-59
2022/12/02 09:26:18;;;;;;;;;;;;;;;1.56;100.00;102346.38;5011415;28;20266;-60
2022/12/02 09:28:43;;;;;;;;;;;;;;;1.62;100.00;102344.72;5010928;28;19936;-60
2022/12/02 09:31:09;;;;;;;;;;;;;;;1.56;100.00;102349.09;5011341;28;19917;-57
2022/12/02 09:33:34;;;;;;;;;;;;;;;1.59;100.00;102345.16;5011752;28;20024;-59
2022/12/02 09:35:59;;;;;;;;;;;;;;;1.57;100.00;102341.78;5014402;28;20020;-59
2022/12/02 09:38:24;;;;;;;;;;;;;;;1.65;100.00;102340.75;5031364;28;20280;-59
2022/12/02 09:40:50;;;;;;;;;;;;;;;1.60;100.00;102333.19;5031768;28;19967;-58
2022/12/02 09:43:15;;;;;;;;;;;;;;;1.60;100.00;102335.91;5031645;28;19920;-59
2022/12/02 09:45:41;;;;;;;;;;;;;;;1.60;100.00;102329.59;5032215;28;19923;-62
2022/12/02 09:48:06;;;;;;;;;;;;;;;1.60;100.00;102335.06;5031872;28;20330;-59
2022/12/02 09:50:31;;;;;;;;;;;;;;;1.55;100.00;102332.97;5031426;28;19917;-59
2022/12/02 09:53:01;;;;;;;;;;;;;;;1.59;100.00;102333.38;5031700;28;19927;-59
2022/12/02 09:55:26;;;;;;;;;;;;;;;1.74;100.00;102336.75;5031410;28;19917;-59
2022/12/02 09:57:52;;;;;;;;;;;;;;;1.67;100.00;102331.28;5031608;28;19928;-59
2022/12/02 10:00:19;;;;;;;;;;;;;;;1.64;100.00;102333.59;5031456;28;19991;-59
2022/12/02 10:02:51;;;;;;;;;;;;;;;1.65;100.00;102338.84;5031755;28;19920;-57
2022/12/02 10:05:18;;;;;;;;;;;;;;;1.73;100.00;102335.06;5031895;28;20003;-59
2022/12/02 10:07:44;;;;;;;;;;;;;;;1.69;100.00;102326.47;5031449;28;20399;-61
2022/12/02 10:10:15;;;;;;;;;;;;;;;1.65;100.00;102330.66;5030693;28;19920;-58
2022/12/02 10:12:40;;;;;;;;;;;;;;;1.67;100.00;102327.72;5031290;28;20040;-59
2022/12/02 10:15:06;;;;;;;;;;;;;;;1.73;100.00;102326.03;5031091;28;20012;-60
2022/12/02 10:17:31;;;;;;;;;;;;;;;1.72;100.00;102327.94;5031257;28;19913;-57
2022/12/02 10:19:56;;;;;;;;;;;;;;;1.65;100.00;102322.47;5031394;28;19964;-60
2022/12/02 10:22:23;;;;;;;;;;;;;;;1.78;100.00;102320.81;5031777;28;19920;-60
2022/12/02 10:24:49;;;;;;;;;;;;;;;1.69;100.00;102322.91;5031745;28;19921;-57
2022/12/02 10:27:25;;;;;;;;;;;;;;;1.74;100.00;102328.56;5031245;28;19924;-58
2022/12/02 10:29:50;;;;;;;;;;;;;;;1.72;100.00;102314.28;5030352;28;19963;-59
2022/12/02 10:32:20;;;;;;;;;;;;;;;1.81;100.00;102315.75;5030184;28;19991;-59
2022/12/02 10:34:59;;;;;;;;;;;;;;;1.84;100.00;102314.50;5031576;28;20015;-59
2022/12/02 10:37:24;;;;;;;;;;;;;;;1.92;100.00;102303.34;5030887;28;20356;-59
2022/12/02 10:40:08;;;;;;;;;;;;;;;1.90;100.00;102310.09;5034537;28;20071;-59
2022/12/02 10:42:34;;;;;;;;;;;;;;;1.89;100.00;102308.41;5035142;28;20349;-59
2022/12/02 10:45:17;;;;;;;;;;;;;;;1.95;100.00;102299.34;5035648;28;19921;-60
2022/12/02 10:47:43;;;;;;;;;;;;;;;1.97;100.00;102300.00;5035372;28;20376;-60
2022/12/02 10:50:15;;;;;;;;;;;;;;;2.01;100.00;102301.25;5035246;28;20110;-59
2022/12/02 10:52:45;;;;;;;;;;;;;;;2.00;100.00;102303.13;5034943;28;20624;-59
2022/12/02 10:55:11;;;;;;;;;;;;;;;2.00;100.00;102297.66;5033426;28;20017;-61
2022/12/02 10:57:37;;;;;;;;;;;;;;;2.01;100.00;102302.06;5033603;28;20381;-59
2022/12/02 11:00:23;;;;;;;;;;;;;;;2.09;100.00;102297.44;5032578;28;19923;-60
2022/12/02 11:02:55;;;;;;;;;;;;;;;2.10;100.00;102299.13;5030798;28;19916;-62
2022/12/02 11:05:22;;;;;;;;;;;;;;;2.13;100.00;102295.97;5034196;28;20296;-60
2022/12/02 11:07:53;;;;;;;;;;;;;;;2.19;100.00;102295.09;5034916;28;19917;-59
2022/12/02 11:10:22;;;;;;;;;;;;;;;2.11;100.00;102296.19;5034897;28;19920;-60
2022/12/02 11:12:48;;;;;;;;;;;;;;;2.13;100.00;102295.97;5034484;28;19917;-60
2022/12/02 11:15:31;;;;;;;;;;;;;;;2.17;100.00;102291.78;5034204;28;19939;-60
2022/12/02 11:17:57;;;;;;;;;;;;;;;2.11;100.00;102292.59;5034198;28;19916;-60
2022/12/02 11:20:31;;;;;;;;;;;;;;;2.10;100.00;102269.09;5033818;28;20218;-60
2022/12/02 11:22:59;;;;;;;;;;;;;;;2.16;100.00;102290.91;5035147;28;20004;-60
2022/12/02 11:25:43;;;;;;;;;;;;;;;2.22;100.00;102291.97;5033208;28;19917;-59
2022/12/02 11:28:13;;;;;;;;;;;;;;;2.18;100.00;102294.28;5032734;28;19944;-59
2022/12/02 11:30:38;;;;;;;;;;;;;;;2.12;100.00;102286.97;5033714;28;19921;-59
2022/12/02 11:33:08;;;;;;;;;;;;;;;2.20;100.00;102290.50;5033780;28;20329;-58
2022/12/02 11:35:52;;;;;;;;;;;;;;;2.11;100.00;102288.00;5032305;28;19913;-60
2022/12/02 11:38:19;;;;;;;;;;;;;;;2.22;100.00;102285.66;5032498;28;19924;-60
2022/12/02 11:40:44;;;;;;;;;;;;;;;2.08;100.00;102282.13;5032155;28;19952;-60
2022/12/02 11:43:28;;;;;;;;;;;;;;;1.99;100.00;102281.50;5032040;28;19983;-61
2022/12/02 11:45:56;;;;;;;;;;;;;;;2.05;100.00;102283.38;5031958;28;19913;-60
2022/12/02 11:48:21;;;;;;;;;;;;;;;2.05;100.00;102280.66;5032321;28;19924;-58
2022/12/02 11:50:46;;;;;;;;;;;;;;;2.17;100.00;102273.50;5032473;28;19913;-59
2022/12/02 11:53:15;;;;;;;;;;;;;;;2.07;100.00;102280.47;5033274;28;19959;-60
2022/12/02 11:55:41;;;;;;;;;;;;;;;2.08;100.00;102280.22;5033302;28;20447;-61
2022/12/02 11:58:18;;;;;;;;;;;;;;;2.17;100.00;102278.13;5030322;28;19919;-60
2022/12/02 12:00:59;;;;;;;;;;;;;;;2.30;100.00;102272.59;5033784;28;19917;-59
2022/12/02 12:03:24;;;;;;;;;;;;;;;2.24;100.00;102280.81;5033329;28;20044;-60
2022/12/02 12:06:08;;;;;;;;;;;;;;;2.07;100.00;102281.28;5033190;28;19960;-60
2022/12/02 12:08:35;;;;;;;;;;;;;;;2.03;100.00;102264.50;5032903;28;19921;-59
2022/12/02 12:11:18;;;;;;;;;;;;;;;2.06;100.00;102267.84;5032260;28;19932;-59
2022/12/02 12:14:02;;;;;;;;;;;;;;;2.14;100.00;102268.44;5032385;28;19940;-60
2022/12/02 12:16:31;;;;;;;;;;;;;;;2.15;100.00;102261.94;5027594;28;20221;-59
2022/12/02 12:18:56;;;;;;;;;;;;;;;2.07;100.00;102258.63;5032727;28;19924;-59
2022/12/02 12:21:31;;;;;;;;;;;;;;;2.16;100.00;102243.69;5032773;28;20296;-60
2022/12/02 12:24:15;;;;;;;;;;;;;;;2.23;100.00;102247.22;5032886;28;19959;-59
2022/12/02 12:26:40;;;;;;;;;;;;;;;2.23;100.00;102244.47;5032788;28;19921;-60
2022/12/02 12:29:05;;;;;;;;;;;;;;;2.27;100.00;102244.88;5032021;28;20230;-60
2022/12/02 12:31:31;;;;;;;;;;;;;;;2.18;100.00;102245.13;5033423;28;19959;-58
2022/12/02 12:33:56;;;;;;;;;;;;;;;2.28;100.00;102247.41;5032474;28;19916;-59
2022/12/02 12:36:21;;;;;;;;;;;;;;;2.29;100.00;102246.34;5032516;28;19932;-59
2022/12/02 12:38:46;;;;;;;;;;;;;;;2.27;100.00;102250.34;5032810;28;19956;-58
2022/12/02 12:41:12;;;;;;;;;;;;;;;2.22;100.00;102245.53;5032353;28;20395;-59
2022/12/02 12:43:37;;;;;;;;;;;;;;;2.19;100.00;102240.50;5031768;28;19968;-58
2022/12/02 12:46:02;;;;;;;;;;;;;;;2.23;100.00;102236.28;5033719;28;19936;-59